createdAt,value
2023-01-07T00:00:52.490Z,98521.16
2023-01-07T00:03:18.978Z,98513.88
2023-01-07T00:05:45.463Z,98517.91
2023-01-07T00:08:11.989Z,98512.09
2023-01-07T00:10:38.471Z,98517.63
2023-01-07T00:13:04.963Z,98514.53
2023-01-07T00:15:31.430Z,98522.34
2023-01-07T00:17:57.960Z,98526.72
2023-01-07T00:20:24.430Z,98523.03
2023-01-07T00:22:51.412Z,98524.91
2023-01-07T00:25:17.875Z,98525.91
2023-01-07T00:27:44.332Z,98525.56
2023-01-07T00:30:11.488Z,98524.09
2023-01-07T00:32:56.612Z,98527.22
2023-01-07T00:35:23.155Z,98528.50
2023-01-07T00:37:51.088Z,98521.16
2023-01-07T00:40:17.704Z,98518.88
2023-01-07T00:43:16.580Z,98525.41
2023-01-07T00:45:43.625Z,98524.59
2023-01-07T00:48:10.170Z,98511.91
2023-01-07T00:50:36.980Z,98517.84
2023-01-07T00:53:03.587Z,98513.94
2023-01-07T00:55:30.257Z,98518.69
2023-01-07T00:57:56.833Z,98513.34
2023-01-07T01:00:24.269Z,98516.31
2023-01-07T01:02:50.920Z,98507.53
2023-01-07T01:05:17.651Z,98513.53
2023-01-07T01:07:44.139Z,98503.25
2023-01-07T01:10:13.011Z,98502.91
2023-01-07T01:12:39.567Z,98497.38
2023-01-07T01:15:08.025Z,98505.00
2023-01-07T01:17:34.776Z,98507.28
2023-01-07T01:20:01.297Z,98504.19
2023-01-07T01:22:27.866Z,98516.06
2023-01-07T01:24:54.373Z,98511.16
2023-01-07T01:27:20.864Z,98508.72
2023-01-07T01:29:47.320Z,98507.59
2023-01-07T01:32:13.785Z,98495.53
2023-01-07T01:34:40.268Z,98504.44
2023-01-07T01:37:06.802Z,98505.25
2023-01-07T01:39:33.292Z,98509.34
2023-01-07T01:41:59.753Z,98507.41
2023-01-07T01:44:29.091Z,98518.16
2023-01-07T01:46:55.612Z,98517.13
2023-01-07T01:49:31.858Z,98512.13
2023-01-07T01:52:10.122Z,98511.59
2023-01-07T01:54:36.605Z,98516.84
2023-01-07T01:57:03.992Z,98514.69
2023-01-07T01:59:32.090Z,98511.50
2023-01-07T02:01:58.653Z,98506.59
2023-01-07T02:04:26.098Z,98507.72
2023-01-07T02:06:56.869Z,98509.38
2023-01-07T02:09:23.379Z,98506.63
2023-01-07T02:12:06.018Z,98508.06
2023-01-07T02:14:53.673Z,98506.09
2023-01-07T02:17:50.479Z,98508.25
2023-01-07T02:20:38.215Z,98511.94
2023-01-07T02:23:35.721Z,98513.75
2023-01-07T02:26:22.883Z,98509.53
2023-01-07T02:29:02.751Z,98502.19
2023-01-07T02:31:50.494Z,98507.09
2023-01-07T02:34:31.527Z,98505.44
2023-01-07T02:37:14.889Z,98508.53
2023-01-07T02:40:06.442Z,98501.72
2023-01-07T02:42:38.867Z,98499.41
2023-01-07T02:45:14.025Z,98495.81
2023-01-07T02:47:49.864Z,98492.28
2023-01-07T02:50:16.373Z,98490.50
2023-01-07T02:52:42.963Z,98484.47
2023-01-07T02:55:13.629Z,98486.41
2023-01-07T02:57:55.281Z,98483.31
2023-01-07T03:01:04.085Z,98487.22
2023-01-07T03:04:08.357Z,98486.41
2023-01-07T03:07:04.351Z,98482.03
2023-01-07T03:09:43.371Z,98479.94
2023-01-07T03:12:21.116Z,98471.16
2023-01-07T03:15:12.419Z,98478.59
2023-01-07T03:17:54.003Z,98469.50
2023-01-07T03:20:20.878Z,98475.03
2023-01-07T03:22:47.347Z,98468.53
2023-01-07T03:25:14.301Z,98467.22
2023-01-07T03:27:41.568Z,98463.66
2023-01-07T03:30:09.578Z,98462.97
2023-01-07T03:32:41.515Z,98458.72
2023-01-07T03:35:08.674Z,98459.38
2023-01-07T03:37:35.163Z,98458.25
2023-01-07T03:40:03.349Z,98444.78
2023-01-07T03:42:41.988Z,98445.56
2023-01-07T03:45:13.285Z,98439.25
2023-01-07T03:47:42.952Z,98429.47
2023-01-07T03:50:09.541Z,98433.22
2023-01-07T03:52:36.056Z,98428.19
2023-01-07T03:55:04.830Z,98433.06
2023-01-07T03:57:32.141Z,98419.59
2023-01-07T03:59:58.860Z,98421.50
2023-01-07T04:02:25.969Z,98424.66
2023-01-07T04:04:52.501Z,98415.69
2023-01-07T04:07:18.959Z,98411.63
2023-01-07T04:09:47.245Z,98408.00
2023-01-07T04:12:14.198Z,98404.16
2023-01-07T04:14:40.673Z,98393.28
2023-01-07T04:17:07.244Z,98392.38
2023-01-07T04:19:34.061Z,98391.69
2023-01-07T04:22:00.515Z,98388.84
2023-01-07T04:24:27.000Z,98376.91
2023-01-07T04:26:53.505Z,98379.84
2023-01-07T04:29:21.013Z,98368.81
2023-01-07T04:31:47.648Z,98373.09
2023-01-07T04:34:14.135Z,98364.16
2023-01-07T04:36:40.659Z,98361.94
2023-01-07T04:39:07.153Z,98360.66
2023-01-07T04:41:33.645Z,98352.69
2023-01-07T04:44:00.210Z,98360.72
2023-01-07T04:46:26.708Z,98348.09
2023-01-07T04:48:53.212Z,98357.47
2023-01-07T04:51:20.355Z,98348.59
2023-01-07T04:53:47.437Z,98350.66
2023-01-07T04:56:13.923Z,98347.28
2023-01-07T04:58:40.490Z,98351.63
2023-01-07T05:01:07.160Z,98347.06
2023-01-07T05:03:36.533Z,98344.75
2023-01-07T05:06:03.348Z,98348.94
2023-01-07T05:08:29.858Z,98343.81
2023-01-07T05:10:56.387Z,98351.19
2023-01-07T05:13:23.461Z,98346.31
2023-01-07T05:15:49.932Z,98351.13
2023-01-07T05:18:16.412Z,98348.75
2023-01-07T05:20:42.874Z,98354.56
2023-01-07T05:23:09.333Z,98351.91
2023-01-07T05:25:35.812Z,98350.63
2023-01-07T05:28:02.284Z,98351.63
2023-01-07T05:30:28.842Z,98357.91
2023-01-07T05:32:55.340Z,98352.88
2023-01-07T05:35:21.833Z,98359.22
2023-01-07T05:37:48.315Z,98355.31
2023-01-07T05:40:14.854Z,98348.78
2023-01-07T05:42:41.380Z,98341.78
2023-01-07T05:45:08.266Z,98355.28
2023-01-07T05:47:34.743Z,98359.69
2023-01-07T05:50:01.409Z,98348.34
2023-01-07T05:52:27.880Z,98338.91
2023-01-07T05:54:54.365Z,98344.72
2023-01-07T05:57:20.833Z,98333.03
2023-01-07T05:59:47.321Z,98334.34
2023-01-07T06:02:13.778Z,98344.09
2023-01-07T06:04:40.323Z,98343.44
2023-01-07T06:07:06.836Z,98334.66
2023-01-07T06:09:33.316Z,98344.25
2023-01-07T06:11:59.781Z,98340.97
2023-01-07T06:14:26.271Z,98337.66
2023-01-07T06:16:52.756Z,98333.50
2023-01-07T06:19:19.506Z,98330.53
2023-01-07T06:21:45.977Z,98327.28
2023-01-07T06:24:12.581Z,98335.38
2023-01-07T06:26:39.042Z,98329.28
2023-01-07T06:29:05.595Z,98333.28
2023-01-07T06:31:32.108Z,98317.19
2023-01-07T06:33:58.676Z,98324.47
2023-01-07T06:36:25.138Z,98313.44
2023-01-07T06:38:51.666Z,98318.47
2023-01-07T06:41:18.170Z,98323.84
2023-01-07T06:43:44.705Z,98315.72
2023-01-07T06:46:11.393Z,98315.72
2023-01-07T06:48:37.892Z,98314.38
2023-01-07T06:51:04.393Z,98311.47
2023-01-07T06:53:30.924Z,98313.91
2023-01-07T06:55:57.413Z,98311.66
2023-01-07T06:58:23.872Z,98312.16
2023-01-07T07:00:50.405Z,98305.63
2023-01-07T07:03:16.919Z,98304.81
2023-01-07T07:05:43.420Z,98298.63
2023-01-07T07:08:09.925Z,98301.25
2023-01-07T07:10:36.449Z,98299.28
2023-01-07T07:13:02.997Z,98299.56
2023-01-07T07:15:29.488Z,98290.31
2023-01-07T07:17:55.979Z,98296.66
2023-01-07T07:20:23.663Z,98285.63
2023-01-07T07:22:50.156Z,98285.28
2023-01-07T07:25:16.666Z,98284.31
2023-01-07T07:27:46.630Z,98284.66
2023-01-07T07:30:14.862Z,98281.56
2023-01-07T07:32:41.505Z,98286.28
2023-01-07T07:35:08.480Z,98278.50
2023-01-07T07:37:35.209Z,98278.47
2023-01-07T07:40:01.704Z,98275.41
2023-01-07T07:42:28.151Z,98271.03
2023-01-07T07:44:54.634Z,98267.78
2023-01-07T07:47:21.112Z,98265.16
2023-01-07T07:49:47.815Z,98270.03
2023-01-07T07:52:14.302Z,98265.38
2023-01-07T07:54:40.880Z,98256.41
2023-01-07T07:57:07.364Z,98252.03
2023-01-07T07:59:33.848Z,98243.41
2023-01-07T08:02:00.413Z,98245.22
2023-01-07T08:04:28.816Z,98242.88
2023-01-07T08:06:55.652Z,98237.69
2023-01-07T08:09:22.113Z,98235.88
2023-01-07T08:11:48.761Z,98230.88
2023-01-07T08:14:15.212Z,98226.03
2023-01-07T08:16:41.685Z,98228.44
2023-01-07T08:19:08.151Z,98231.88
2023-01-07T08:21:34.616Z,98222.41
2023-01-07T08:24:01.105Z,98222.59
2023-01-07T08:26:27.560Z,98221.06
2023-01-07T08:28:54.333Z,98222.41
2023-01-07T08:31:20.839Z,98212.28
2023-01-07T08:33:47.413Z,98208.38
2023-01-07T08:36:22.738Z,98205.88
2023-01-07T08:38:53.627Z,98205.66
2023-01-07T08:41:20.370Z,98206.81
2023-01-07T08:43:46.865Z,98197.66
2023-01-07T08:46:13.430Z,98185.88
2023-01-07T08:48:40.259Z,98187.16
2023-01-07T08:51:06.787Z,98184.88
2023-01-07T08:53:33.352Z,98181.91
2023-01-07T08:55:59.835Z,98179.75
2023-01-07T08:58:26.388Z,98171.31
2023-01-07T09:00:53.134Z,98166.34
2023-01-07T09:03:19.658Z,98162.91
2023-01-07T09:05:46.638Z,98161.28
2023-01-07T09:08:13.122Z,98156.22
2023-01-07T09:10:39.601Z,98155.41
2023-01-07T09:13:06.063Z,98146.66
2023-01-07T09:15:32.629Z,98143.91
2023-01-07T09:17:59.095Z,98141.25
2023-01-07T09:20:25.576Z,98127.22
2023-01-07T09:22:52.078Z,98135.38
2023-01-07T09:25:18.546Z,98131.22
2023-01-07T09:27:45.814Z,98127.06
2023-01-07T09:30:12.417Z,98126.50
2023-01-07T09:32:38.886Z,98133.06
2023-01-07T09:35:06.034Z,98123.03
2023-01-07T09:37:32.508Z,98122.69
2023-01-07T09:40:01.025Z,98121.53
2023-01-07T09:42:55.599Z,98119.59
2023-01-07T09:45:32.190Z,98114.63
2023-01-07T09:47:59.894Z,98116.72
2023-01-07T09:50:51.887Z,98113.38
2023-01-07T09:53:30.734Z,98115.47
2023-01-07T09:56:11.154Z,98110.88
2023-01-07T09:58:41.357Z,98101.56
2023-01-07T10:01:45.651Z,98106.53
2023-01-07T10:04:24.276Z,98097.53
2023-01-07T10:07:15.779Z,98092.94
2023-01-07T10:09:54.353Z,98085.09
2023-01-07T10:12:26.813Z,98081.41
2023-01-07T10:15:08.288Z,98070.09
2023-01-07T10:17:59.388Z,98061.09
2023-01-07T10:20:38.032Z,98060.41
2023-01-07T10:23:08.424Z,98064.56
2023-01-07T10:25:37.427Z,98048.66
2023-01-07T10:28:06.367Z,98064.47
2023-01-07T10:30:36.911Z,98061.13
2023-01-07T10:33:18.152Z,98054.66
2023-01-07T10:35:44.628Z,98047.16
2023-01-07T10:38:13.069Z,98048.09
2023-01-07T10:40:46.099Z,98049.72
2023-01-07T10:43:45.789Z,98048.31
2023-01-07T10:46:33.761Z,98040.81
2023-01-07T10:49:20.537Z,98038.63
2023-01-07T10:52:02.624Z,98042.22
2023-01-07T10:54:47.717Z,98040.25
2023-01-07T10:57:17.769Z,98035.28
2023-01-07T10:59:49.476Z,98038.88
2023-01-07T11:02:19.130Z,98036.91
2023-01-07T11:04:45.760Z,98036.91
2023-01-07T11:07:18.695Z,98035.41
2023-01-07T11:09:46.122Z,98026.44
2023-01-07T11:12:27.760Z,98028.13
2023-01-07T11:14:54.798Z,98016.25
2023-01-07T11:17:32.162Z,98015.91
2023-01-07T11:19:58.634Z,98009.47
2023-01-07T11:22:33.402Z,98011.75
2023-01-07T11:25:00.941Z,98004.97
2023-01-07T11:27:29.316Z,97992.06
2023-01-07T11:30:13.170Z,97986.41
2023-01-07T11:32:43.114Z,97987.91
2023-01-07T11:35:15.611Z,97983.50
2023-01-07T11:37:43.987Z,97980.75
2023-01-07T11:40:13.397Z,97981.22
2023-01-07T11:42:52.580Z,97969.34
2023-01-07T11:45:47.090Z,97970.84
2023-01-07T11:48:34.723Z,97954.34
2023-01-07T11:51:10.582Z,97952.00
2023-01-07T11:53:41.194Z,97939.25
2023-01-07T11:56:10.125Z,97936.31
2023-01-07T11:58:38.483Z,97925.69
2023-01-07T12:01:07.861Z,97917.75
2023-01-07T12:03:35.173Z,97913.94
2023-01-07T12:06:08.534Z,97915.22
2023-01-07T12:08:35.009Z,97903.81
2023-01-07T12:11:05.998Z,97892.75
2023-01-07T12:13:32.472Z,97891.03
2023-01-07T12:16:00.949Z,97884.44
2023-01-07T12:18:58.791Z,97878.38
2023-01-07T12:21:54.519Z,97876.19
2023-01-07T12:24:39.938Z,97873.19
2023-01-07T12:27:22.345Z,97877.59
2023-01-07T12:30:21.387Z,97865.72
2023-01-07T12:32:55.228Z,97868.25
2023-01-07T12:35:32.732Z,97857.28
2023-01-07T12:38:09.377Z,97855.66
2023-01-07T12:40:43.604Z,97850.34
2023-01-07T12:43:28.425Z,97856.22
2023-01-07T12:45:56.644Z,97847.94
2023-01-07T12:48:39.522Z,97842.41
2023-01-07T12:51:13.597Z,97831.22
2023-01-07T12:53:43.563Z,97824.88
2023-01-07T12:56:36.968Z,97814.97
2023-01-07T12:59:09.426Z,97816.81
2023-01-07T13:02:05.077Z,97804.72
2023-01-07T13:04:35.685Z,97799.97
2023-01-07T13:07:08.354Z,97804.94
2023-01-07T13:09:50.873Z,97802.88
2023-01-07T13:12:43.381Z,97799.41
2023-01-07T13:15:23.499Z,97787.19
2023-01-07T13:17:50.878Z,97783.72
2023-01-07T13:20:20.693Z,97764.91
2023-01-07T13:22:49.851Z,97766.97
2023-01-07T13:25:43.779Z,97766.19
2023-01-07T13:28:47.759Z,97760.72
2023-01-07T13:31:34.001Z,97757.78
2023-01-07T13:34:09.209Z,97755.81
2023-01-07T13:37:03.801Z,97750.53
2023-01-07T13:39:50.340Z,97745.53
2023-01-07T13:42:29.188Z,97740.06
2023-01-07T13:45:02.181Z,97742.47
2023-01-07T13:47:55.883Z,97748.66
2023-01-07T13:50:35.745Z,97731.00
2023-01-07T13:53:07.737Z,97739.47
2023-01-07T13:55:36.574Z,97736.81
2023-01-07T13:58:03.111Z,97726.19
2023-01-07T14:01:00.266Z,97723.31
2023-01-07T14:03:49.748Z,97716.00
2023-01-07T14:06:22.251Z,97711.72
2023-01-07T14:08:58.532Z,97707.69
2023-01-07T14:11:31.226Z,97710.53
2023-01-07T14:14:03.634Z,97705.81
2023-01-07T14:16:37.110Z,97701.44
2023-01-07T14:19:15.564Z,97713.94
2023-01-07T14:22:03.444Z,97713.22
2023-01-07T14:24:50.883Z,97713.66
2023-01-07T14:27:34.816Z,97710.91
2023-01-07T14:30:30.475Z,97708.22
2023-01-07T14:32:57.683Z,97713.38
2023-01-07T14:35:38.331Z,97700.06
2023-01-07T14:38:26.499Z,97700.00
2023-01-07T14:41:10.010Z,97696.03
2023-01-07T14:43:48.511Z,97692.84
2023-01-07T14:46:21.046Z,97698.16
2023-01-07T14:49:03.703Z,97697.56
2023-01-07T14:51:33.301Z,97677.63
2023-01-07T14:54:30.701Z,97688.00
2023-01-07T14:57:40.274Z,97670.59
2023-01-07T15:00:13.332Z,97676.72
2023-01-07T15:03:03.181Z,97673.50
2023-01-07T15:05:50.805Z,97664.75
2023-01-07T15:08:39.950Z,97675.00
2023-01-07T15:11:32.106Z,97666.38
2023-01-07T15:14:21.759Z,97676.78
2023-01-07T15:16:49.247Z,97662.06
2023-01-07T15:19:16.292Z,97657.00
2023-01-07T15:21:58.491Z,97663.22
2023-01-07T15:25:13.106Z,97649.06
2023-01-07T15:27:51.633Z,97637.19
2023-01-07T15:30:35.264Z,97634.69
2023-01-07T15:33:42.430Z,97633.06
2023-01-07T15:36:09.739Z,97627.19
2023-01-07T15:38:44.635Z,97619.88
2023-01-07T15:41:40.612Z,97612.19
2023-01-07T15:44:15.686Z,97606.31
2023-01-07T15:46:42.424Z,97608.25
2023-01-07T15:49:08.806Z,97606.41
2023-01-07T15:51:42.836Z,97608.38
2023-01-07T15:54:24.676Z,97602.13
2023-01-07T15:56:53.727Z,97608.81
2023-01-07T15:59:26.569Z,97604.97
2023-01-07T16:01:53.972Z,97608.13
2023-01-07T16:04:25.899Z,97599.53
2023-01-07T16:06:56.224Z,97594.13
2023-01-07T16:09:22.599Z,97583.78
2023-01-07T16:11:49.168Z,97582.50
2023-01-07T16:14:23.166Z,97564.25
2023-01-07T16:17:03.130Z,97578.53
2023-01-07T16:19:29.967Z,97574.41
2023-01-07T16:21:57.203Z,97571.75
2023-01-07T16:24:23.696Z,97578.53
2023-01-07T16:26:51.672Z,97577.97
2023-01-07T16:29:25.427Z,97577.25
2023-01-07T16:31:51.971Z,97572.91
2023-01-07T16:34:24.324Z,97573.34
2023-01-07T16:36:58.243Z,97571.91
2023-01-07T16:39:29.923Z,97561.66
2023-01-07T16:42:16.508Z,97563.63
2023-01-07T16:44:44.241Z,97569.84
2023-01-07T16:47:27.851Z,97569.50
2023-01-07T16:50:17.694Z,97563.72
2023-01-07T16:52:53.894Z,97557.75
2023-01-07T16:55:49.043Z,97557.63
2023-01-07T16:58:24.593Z,97548.28
2023-01-07T17:00:51.355Z,97542.22
2023-01-07T17:03:18.036Z,97546.88
2023-01-07T17:05:55.829Z,97533.91
2023-01-07T17:08:22.386Z,97530.81
2023-01-07T17:10:56.531Z,97535.06
2023-01-07T17:13:22.817Z,97544.16
2023-01-07T17:15:49.282Z,97542.75
2023-01-07T17:18:15.597Z,97523.75
2023-01-07T17:20:45.171Z,97526.97
2023-01-07T17:23:26.969Z,97520.84
2023-01-07T17:26:07.664Z,97523.59
2023-01-07T17:28:36.069Z,97521.81
2023-01-07T17:31:02.643Z,97525.72
2023-01-07T17:33:29.125Z,97526.78
2023-01-07T17:35:57.367Z,97513.84
2023-01-07T17:38:23.964Z,97510.28
2023-01-07T17:40:50.425Z,97515.72
2023-01-07T17:43:34.547Z,97507.78
2023-01-07T17:46:01.573Z,97498.69
2023-01-07T17:48:28.272Z,97497.19
2023-01-07T17:50:57.064Z,97490.94
2023-01-07T17:53:30.642Z,97484.25
2023-01-07T17:55:57.881Z,97485.41
2023-01-07T17:58:32.071Z,97492.44
2023-01-07T18:00:59.484Z,97489.34
2023-01-07T18:03:26.147Z,97476.88
2023-01-07T18:05:52.627Z,97479.97
2023-01-07T18:08:19.095Z,97478.38
2023-01-07T18:11:04.271Z,97481.03
2023-01-07T18:13:30.765Z,97483.00
2023-01-07T18:15:57.460Z,97481.84
2023-01-07T18:18:28.736Z,97480.84
2023-01-07T18:20:55.813Z,97497.16
2023-01-07T18:23:22.522Z,97480.84
2023-01-07T18:25:49.140Z,97491.53
2023-01-07T18:28:15.604Z,97489.81
2023-01-07T18:30:42.171Z,97481.53
2023-01-07T18:33:10.685Z,97481.09
2023-01-07T18:35:37.632Z,97484.22
2023-01-07T18:38:04.442Z,97473.88
2023-01-07T18:40:31.991Z,97478.13
2023-01-07T18:43:00.739Z,97488.38
2023-01-07T18:45:27.305Z,97479.88
2023-01-07T18:47:53.816Z,97485.06
2023-01-07T18:50:20.288Z,97480.91
2023-01-07T18:52:46.755Z,97475.28
2023-01-07T18:55:13.299Z,97488.63
2023-01-07T18:57:39.762Z,97476.78
2023-01-07T19:00:06.756Z,97480.69
2023-01-07T19:02:33.267Z,97471.59
2023-01-07T19:04:59.737Z,97471.09
2023-01-07T19:07:26.188Z,97471.78
2023-01-07T19:09:52.759Z,97477.06
2023-01-07T19:12:19.249Z,97479.59
2023-01-07T19:14:45.726Z,97477.31
2023-01-07T19:17:12.528Z,97480.16
2023-01-07T19:19:47.732Z,97481.41
2023-01-07T19:22:15.948Z,97487.72
2023-01-07T19:24:42.468Z,97478.00
2023-01-07T19:27:08.963Z,97481.50
2023-01-07T19:29:35.469Z,97473.03
2023-01-07T19:32:02.006Z,97468.91
2023-01-07T19:34:28.607Z,97464.09
2023-01-07T19:36:55.125Z,97458.47
2023-01-07T19:39:22.511Z,97451.78
2023-01-07T19:41:49.100Z,97444.06
2023-01-07T19:44:15.757Z,97443.97
2023-01-07T19:46:42.570Z,97439.88
2023-01-07T19:49:09.659Z,97421.72
2023-01-07T19:51:36.944Z,97424.19
2023-01-07T19:54:03.859Z,97419.75
2023-01-07T19:56:30.853Z,97413.72
2023-01-07T19:58:57.898Z,97404.53
2023-01-07T20:01:26.440Z,97404.44
2023-01-07T20:03:53.538Z,97394.94
2023-01-07T20:06:21.561Z,97390.63
2023-01-07T20:08:48.311Z,97388.88
2023-01-07T20:11:14.850Z,97379.25
2023-01-07T20:13:41.328Z,97367.16
2023-01-07T20:16:12.703Z,97360.31
2023-01-07T20:18:39.997Z,97363.09
2023-01-07T20:21:06.904Z,97363.69
2023-01-07T20:23:37.196Z,97361.28
2023-01-07T20:26:06.027Z,97365.00
2023-01-07T20:28:32.733Z,97367.22
2023-01-07T20:30:59.600Z,97379.69
2023-01-07T20:33:26.068Z,97366.69
2023-01-07T20:36:02.788Z,97358.78
2023-01-07T20:38:29.253Z,97363.38
2023-01-07T20:40:55.768Z,97359.56
2023-01-07T20:43:22.244Z,97370.16
2023-01-07T20:45:48.837Z,97374.81
2023-01-07T20:48:15.677Z,97371.94
2023-01-07T20:50:42.558Z,97365.06
2023-01-07T20:53:09.615Z,97374.94
2023-01-07T20:55:36.277Z,97369.44
2023-01-07T20:58:02.754Z,97373.09
2023-01-07T21:00:29.261Z,97365.53
2023-01-07T21:02:55.794Z,97365.53
2023-01-07T21:05:24.411Z,97359.91
2023-01-07T21:07:50.988Z,97354.47
2023-01-07T21:10:18.321Z,97358.75
2023-01-07T21:12:45.431Z,97347.00
2023-01-07T21:15:13.041Z,97341.84
2023-01-07T21:17:42.644Z,97340.53
2023-01-07T21:20:11.126Z,97336.69
2023-01-07T21:22:38.829Z,97338.75
2023-01-07T21:25:06.131Z,97336.88
2023-01-07T21:27:32.696Z,97343.38
2023-01-07T21:29:59.147Z,97344.19
2023-01-07T21:32:25.683Z,97333.34
2023-01-07T21:34:52.143Z,97326.91
2023-01-07T21:37:18.622Z,97336.44
2023-01-07T21:39:45.134Z,97330.94
2023-01-07T21:42:11.655Z,97320.59
2023-01-07T21:44:38.129Z,97321.28
2023-01-07T21:47:04.595Z,97321.22
2023-01-07T21:49:32.031Z,97322.03
2023-01-07T21:51:58.867Z,97319.63
2023-01-07T21:54:25.323Z,97317.38
2023-01-07T21:56:51.806Z,97311.78
2023-01-07T21:59:20.277Z,97312.16
2023-01-07T22:01:47.208Z,97310.19
2023-01-07T22:04:13.740Z,97305.19
2023-01-07T22:06:40.260Z,97304.84
2023-01-07T22:09:08.473Z,97301.97
2023-01-07T22:11:35.668Z,97304.94
2023-01-07T22:14:02.161Z,97309.66
2023-01-07T22:16:29.903Z,97304.13
2023-01-07T22:18:57.463Z,97314.00
2023-01-07T22:21:23.945Z,97319.34
2023-01-07T22:23:50.741Z,97320.13
2023-01-07T22:26:18.011Z,97316.69
2023-01-07T22:28:46.120Z,97309.66
2023-01-07T22:31:20.220Z,97301.00
2023-01-07T22:33:46.709Z,97303.06
2023-01-07T22:36:14.803Z,97309.53
2023-01-07T22:38:41.325Z,97301.25
2023-01-07T22:41:07.799Z,97310.44
2023-01-07T22:43:34.323Z,97308.56
2023-01-07T22:46:06.991Z,97296.81
2023-01-07T22:48:34.744Z,97297.63
2023-01-07T22:51:05.608Z,97297.19
2023-01-07T22:53:32.067Z,97301.53
2023-01-07T22:55:58.581Z,97298.50
2023-01-07T22:58:25.381Z,97291.09
2023-01-07T23:00:51.898Z,97288.34
2023-01-07T23:03:19.046Z,97288.19
2023-01-07T23:05:45.581Z,97291.75
2023-01-07T23:08:12.164Z,97289.69
2023-01-07T23:10:38.762Z,97282.31
2023-01-07T23:13:05.687Z,97280.34
2023-01-07T23:15:33.495Z,97265.66
2023-01-07T23:17:59.965Z,97260.13
2023-01-07T23:20:26.426Z,97260.84
2023-01-07T23:22:52.906Z,97254.97
2023-01-07T23:25:19.388Z,97256.22
2023-01-07T23:27:45.861Z,97252.75
2023-01-07T23:30:12.597Z,97259.47
2023-01-07T23:32:39.104Z,97244.47
2023-01-07T23:35:05.956Z,97241.53
2023-01-07T23:37:32.864Z,97247.94
2023-01-07T23:39:59.322Z,97249.34
2023-01-07T23:42:26.122Z,97251.75
2023-01-07T23:44:52.632Z,97248.00
2023-01-07T23:47:19.111Z,97240.91
2023-01-07T23:49:45.563Z,97242.94
2023-01-07T23:52:12.037Z,97234.66
2023-01-07T23:54:38.484Z,97233.06
2023-01-07T23:57:04.974Z,97230.75
2023-01-07T23:59:31.438Z,97230.91
